sensor_id;sensor_type;location;lat;lon;timestamp;P1;durP1;ratioP1;P2;durP2;ratioP2
73599;SDS011;61877;48.246;9.220;2023-02-26T00:00:00;10.98;;;4.90;;
73599;SDS011;61877;48.246;9.220;2023-02-26T00:02:26;9.30;;;4.87;;
73599;SDS011;61877;48.246;9.220;2023-02-26T00:04:51;8.97;;;4.80;;
73599;SDS011;61877;48.246;9.220;2023-02-26T00:07:19;9.00;;;5.00;;
73599;SDS011;61877;48.246;9.220;2023-02-26T00:09:45;8.45;;;4.70;;
73599;SDS011;61877;48.246;9.220;2023-02-26T00:12:14;10.20;;;5.00;;
73599;SDS011;61877;48.246;9.220;2023-02-26T00:14:41;9.13;;;5.40;;
73599;SDS011;61877;48.246;9.220;2023-02-26T00:17:23;9.98;;;4.95;;
73599;SDS011;61877;48.246;9.220;2023-02-26T00:20:12;7.80;;;4.55;;
73599;SDS011;61877;48.246;9.220;2023-02-26T00:22:38;10.53;;;4.30;;
73599;SDS011;61877;48.246;9.220;2023-02-26T00:25:04;11.20;;;5.75;;
73599;SDS011;61877;48.246;9.220;2023-02-26T00:27:30;8.88;;;4.38;;
73599;SDS011;61877;48.246;9.220;2023-02-26T00:29:58;8.43;;;4.50;;
73599;SDS011;61877;48.246;9.220;2023-02-26T00:32:24;10.88;;;4.90;;
73599;SDS011;61877;48.246;9.220;2023-02-26T00:34:51;12.07;;;4.53;;
73599;SDS011;61877;48.246;9.220;2023-02-26T00:37:22;9.43;;;4.82;;
73599;SDS011;61877;48.246;9.220;2023-02-26T00:40:00;7.68;;;4.47;;
73599;SDS011;61877;48.246;9.220;2023-02-26T00:42:35;9.37;;;4.47;;
73599;SDS011;61877;48.246;9.220;2023-02-26T00:45:03;7.95;;;4.70;;
73599;SDS011;61877;48.246;9.220;2023-02-26T00:47:32;8.07;;;4.57;;
73599;SDS011;61877;48.246;9.220;2023-02-26T00:50:11;9.50;;;4.90;;
73599;SDS011;61877;48.246;9.220;2023-02-26T00:52:43;8.57;;;5.20;;
73599;SDS011;61877;48.246;9.220;2023-02-26T00:55:29;8.93;;;4.90;;
73599;SDS011;61877;48.246;9.220;2023-02-26T00:57:55;9.25;;;4.55;;
73599;SDS011;61877;48.246;9.220;2023-02-26T01:00:22;8.13;;;4.67;;
73599;SDS011;61877;48.246;9.220;2023-02-26T01:02:51;8.93;;;4.63;;
73599;SDS011;61877;48.246;9.220;2023-02-26T01:05:18;9.55;;;4.22;;
73599;SDS011;61877;48.246;9.220;2023-02-26T01:07:47;9.25;;;4.72;;
73599;SDS011;61877;48.246;9.220;2023-02-26T01:10:23;8.63;;;4.80;;
73599;SDS011;61877;48.246;9.220;2023-02-26T01:12:49;8.90;;;4.80;;
73599;SDS011;61877;48.246;9.220;2023-02-26T01:15:15;8.25;;;4.60;;
73599;SDS011;61877;48.246;9.220;2023-02-26T01:17:44;9.02;;;4.03;;
73599;SDS011;61877;48.246;9.220;2023-02-26T01:20:19;8.32;;;4.45;;
73599;SDS011;61877;48.246;9.220;2023-02-26T01:22:51;7.43;;;3.83;;
73599;SDS011;61877;48.246;9.220;2023-02-26T01:25:20;8.48;;;4.63;;
73599;SDS011;61877;48.246;9.220;2023-02-26T01:27:49;7.88;;;4.50;;
73599;SDS011;61877;48.246;9.220;2023-02-26T01:30:15;9.48;;;4.55;;
73599;SDS011;61877;48.246;9.220;2023-02-26T01:32:45;8.77;;;4.47;;
73599;SDS011;61877;48.246;9.220;2023-02-26T01:38:08;8.95;;;4.68;;
73599;SDS011;61877;48.246;9.220;2023-02-26T01:41:02;8.70;;;4.70;;
73599;SDS011;61877;48.246;9.220;2023-02-26T01:43:38;8.85;;;4.63;;
73599;SDS011;61877;48.246;9.220;2023-02-26T01:46:13;7.82;;;4.78;;
73599;SDS011;61877;48.246;9.220;2023-02-26T01:48:47;9.20;;;4.60;;
73599;SDS011;61877;48.246;9.220;2023-02-26T01:51:14;9.10;;;4.53;;
73599;SDS011;61877;48.246;9.220;2023-02-26T01:53:40;8.03;;;4.50;;
73599;SDS011;61877;48.246;9.220;2023-02-26T01:56:16;9.25;;;4.90;;
73599;SDS011;61877;48.246;9.220;2023-02-26T01:58:43;9.30;;;4.88;;
73599;SDS011;61877;48.246;9.220;2023-02-26T02:01:14;10.87;;;4.50;;
73599;SDS011;61877;48.246;9.220;2023-02-26T02:03:39;9.55;;;4.82;;
73599;SDS011;61877;48.246;9.220;2023-02-26T02:06:08;9.40;;;4.90;;
73599;SDS011;61877;48.246;9.220;2023-02-26T02:08:40;8.48;;;4.55;;
73599;SDS011;61877;48.246;9.220;2023-02-26T02:11:06;9.30;;;4.78;;
73599;SDS011;61877;48.246;9.220;2023-02-26T02:13:40;8.43;;;4.63;;
73599;SDS011;61877;48.246;9.220;2023-02-26T02:16:27;7.57;;;4.47;;
73599;SDS011;61877;48.246;9.220;2023-02-26T02:19:04;8.48;;;4.72;;
73599;SDS011;61877;48.246;9.220;2023-02-26T02:25:00;9.55;;;4.88;;
73599;SDS011;61877;48.246;9.220;2023-02-26T02:27:37;10.33;;;4.70;;
73599;SDS011;61877;48.246;9.220;2023-02-26T02:33:02;8.50;;;4.47;;
73599;SDS011;61877;48.246;9.220;2023-02-26T02:35:35;8.23;;;4.40;;
73599;SDS011;61877;48.246;9.220;2023-02-26T02:38:06;8.13;;;4.53;;
73599;SDS011;61877;48.246;9.220;2023-02-26T02:40:36;11.17;;;4.80;;
73599;SDS011;61877;48.246;9.220;2023-02-26T02:43:09;8.63;;;4.30;;
73599;SDS011;61877;48.246;9.220;2023-02-26T02:45:40;8.65;;;4.10;;
73599;SDS011;61877;48.246;9.220;2023-02-26T02:48:10;9.68;;;4.78;;
73599;SDS011;61877;48.246;9.220;2023-02-26T02:50:43;9.70;;;4.38;;
73599;SDS011;61877;48.246;9.220;2023-02-26T02:53:15;10.63;;;4.80;;
73599;SDS011;61877;48.246;9.220;2023-02-26T02:55:45;8.88;;;4.78;;
73599;SDS011;61877;48.246;9.220;2023-02-26T02:58:14;7.60;;;4.13;;
73599;SDS011;61877;48.246;9.220;2023-02-26T03:00:43;8.32;;;4.55;;
73599;SDS011;61877;48.246;9.220;2023-02-26T03:03:17;7.60;;;4.43;;
73599;SDS011;61877;48.246;9.220;2023-02-26T03:05:49;8.13;;;4.10;;
73599;SDS011;61877;48.246;9.220;2023-02-26T03:08:16;10.02;;;4.70;;
73599;SDS011;61877;48.246;9.220;2023-02-26T03:10:46;8.70;;;4.63;;
73599;SDS011;61877;48.246;9.220;2023-02-26T03:13:13;8.27;;;4.57;;
73599;SDS011;61877;48.246;9.220;2023-02-26T03:15:41;8.63;;;4.72;;
73599;SDS011;61877;48.246;9.220;2023-02-26T03:18:20;9.13;;;4.90;;
73599;SDS011;61877;48.246;9.220;2023-02-26T03:20:56;8.80;;;4.45;;
73599;SDS011;61877;48.246;9.220;2023-02-26T03:23:31;8.15;;;4.38;;
73599;SDS011;61877;48.246;9.220;2023-02-26T03:26:02;7.73;;;4.43;;
73599;SDS011;61877;48.246;9.220;2023-02-26T03:28:37;8.95;;;4.70;;
73599;SDS011;61877;48.246;9.220;2023-02-26T03:31:10;7.93;;;4.30;;
73599;SDS011;61877;48.246;9.220;2023-02-26T03:33:46;8.40;;;4.20;;
73599;SDS011;61877;48.246;9.220;2023-02-26T03:36:19;7.93;;;4.57;;
73599;SDS011;61877;48.246;9.220;2023-02-26T03:38:50;8.37;;;4.30;;
73599;SDS011;61877;48.246;9.220;2023-02-26T03:41:24;8.60;;;4.85;;
73599;SDS011;61877;48.246;9.220;2023-02-26T03:43:55;9.88;;;4.55;;
73599;SDS011;61877;48.246;9.220;2023-02-26T03:46:26;7.70;;;4.53;;
73599;SDS011;61877;48.246;9.220;2023-02-26T03:49:00;8.48;;;4.55;;
73599;SDS011;61877;48.246;9.220;2023-02-26T03:51:30;9.17;;;4.47;;
73599;SDS011;61877;48.246;9.220;2023-02-26T03:53:59;8.93;;;5.20;;
73599;SDS011;61877;48.246;9.220;2023-02-26T03:56:29;8.68;;;4.93;;
73599;SDS011;61877;48.246;9.220;2023-02-26T03:59:02;8.35;;;4.68;;
73599;SDS011;61877;48.246;9.220;2023-02-26T04:01:29;8.93;;;4.80;;
73599;SDS011;61877;48.246;9.220;2023-02-26T04:04:02;8.43;;;4.90;;
73599;SDS011;61877;48.246;9.220;2023-02-26T04:06:32;9.50;;;4.65;;
73599;SDS011;61877;48.246;9.220;2023-02-26T04:08:58;8.30;;;4.30;;
73599;SDS011;61877;48.246;9.220;2023-02-26T04:11:24;10.05;;;4.70;;
73599;SDS011;61877;48.246;9.220;2023-02-26T04:13:51;10.82;;;4.47;;
73599;SDS011;61877;48.246;9.220;2023-02-26T04:16:18;7.87;;;4.63;;
73599;SDS011;61877;48.246;9.220;2023-02-26T04:18:43;9.15;;;4.85;;
73599;SDS011;61877;48.246;9.220;2023-02-26T04:21:11;8.03;;;4.43;;
73599;SDS011;61877;48.246;9.220;2023-02-26T04:23:37;8.25;;;4.70;;
73599;SDS011;61877;48.246;9.220;2023-02-26T04:26:02;8.50;;;4.60;;
73599;SDS011;61877;48.246;9.220;2023-02-26T04:28:28;8.73;;;4.50;;
73599;SDS011;61877;48.246;9.220;2023-02-26T04:30:53;7.95;;;4.47;;
73599;SDS011;61877;48.246;9.220;2023-02-26T04:33:19;8.57;;;4.63;;
73599;SDS011;61877;48.246;9.220;2023-02-26T04:35:45;8.90;;;4.70;;
73599;SDS011;61877;48.246;9.220;2023-02-26T04:38:11;9.35;;;4.70;;
73599;SDS011;61877;48.246;9.220;2023-02-26T04:40:37;8.15;;;4.63;;
73599;SDS011;61877;48.246;9.220;2023-02-26T04:43:02;9.70;;;4.73;;
73599;SDS011;61877;48.246;9.220;2023-02-26T04:45:28;11.07;;;4.70;;
73599;SDS011;61877;48.246;9.220;2023-02-26T04:47:53;8.20;;;4.10;;
73599;SDS011;61877;48.246;9.220;2023-02-26T04:50:18;8.27;;;4.57;;
73599;SDS011;61877;48.246;9.220;2023-02-26T04:52:44;7.70;;;4.63;;
73599;SDS011;61877;48.246;9.220;2023-02-26T04:55:11;9.05;;;4.50;;
73599;SDS011;61877;48.246;9.220;2023-02-26T04:57:37;9.40;;;4.73;;
73599;SDS011;61877;48.246;9.220;2023-02-26T05:00:03;9.45;;;4.35;;
73599;SDS011;61877;48.246;9.220;2023-02-26T05:02:29;7.63;;;3.87;;
73599;SDS011;61877;48.246;9.220;2023-02-26T05:04:54;9.20;;;4.60;;
73599;SDS011;61877;48.246;9.220;2023-02-26T05:07:20;7.33;;;4.13;;
73599;SDS011;61877;48.246;9.220;2023-02-26T05:09:46;9.33;;;4.70;;
73599;SDS011;61877;48.246;9.220;2023-02-26T05:12:14;9.02;;;4.50;;
73599;SDS011;61877;48.246;9.220;2023-02-26T05:14:39;8.23;;;4.70;;
73599;SDS011;61877;48.246;9.220;2023-02-26T05:17:05;8.40;;;4.30;;
73599;SDS011;61877;48.246;9.220;2023-02-26T05:19:31;9.80;;;4.40;;
73599;SDS011;61877;48.246;9.220;2023-02-26T05:22:00;9.43;;;4.90;;
73599;SDS011;61877;48.246;9.220;2023-02-26T05:24:26;8.33;;;4.30;;
73599;SDS011;61877;48.246;9.220;2023-02-26T05:26:51;7.90;;;4.65;;
73599;SDS011;61877;48.246;9.220;2023-02-26T05:29:19;7.80;;;4.45;;
73599;SDS011;61877;48.246;9.220;2023-02-26T05:31:44;8.85;;;4.53;;
73599;SDS011;61877;48.246;9.220;2023-02-26T05:34:12;8.00;;;5.13;;
73599;SDS011;61877;48.246;9.220;2023-02-26T05:36:38;10.70;;;4.80;;
73599;SDS011;61877;48.246;9.220;2023-02-26T05:39:07;7.60;;;4.60;;
73599;SDS011;61877;48.246;9.220;2023-02-26T05:41:33;8.43;;;4.93;;
73599;SDS011;61877;48.246;9.220;2023-02-26T05:43:58;9.53;;;4.47;;
73599;SDS011;61877;48.246;9.220;2023-02-26T05:46:25;7.40;;;4.57;;
73599;SDS011;61877;48.246;9.220;2023-02-26T05:48:51;8.07;;;4.28;;
73599;SDS011;61877;48.246;9.220;2023-02-26T05:51:16;8.00;;;4.15;;
73599;SDS011;61877;48.246;9.220;2023-02-26T05:53:42;9.27;;;4.50;;
73599;SDS011;61877;48.246;9.220;2023-02-26T05:56:07;8.07;;;4.63;;
73599;SDS011;61877;48.246;9.220;2023-02-26T05:58:34;9.37;;;4.90;;
73599;SDS011;61877;48.246;9.220;2023-02-26T06:00:59;8.02;;;4.68;;
73599;SDS011;61877;48.246;9.220;2023-02-26T06:03:26;8.25;;;4.78;;
73599;SDS011;61877;48.246;9.220;2023-02-26T06:05:52;8.68;;;4.57;;
73599;SDS011;61877;48.246;9.220;2023-02-26T06:08:21;7.90;;;4.20;;
73599;SDS011;61877;48.246;9.220;2023-02-26T06:11:11;7.97;;;4.53;;
73599;SDS011;61877;48.246;9.220;2023-02-26T06:14:38;6.97;;;3.95;;
73599;SDS011;61877;48.246;9.220;2023-02-26T06:17:13;8.65;;;4.50;;
73599;SDS011;61877;48.246;9.220;2023-02-26T06:20:06;8.23;;;4.57;;
73599;SDS011;61877;48.246;9.220;2023-02-26T06:28:52;8.38;;;4.57;;
73599;SDS011;61877;48.246;9.220;2023-02-26T06:34:55;8.03;;;4.73;;
73599;SDS011;61877;48.246;9.220;2023-02-26T06:38:10;8.60;;;4.95;;
73599;SDS011;61877;48.246;9.220;2023-02-26T06:47:06;8.85;;;5.03;;
73599;SDS011;61877;48.246;9.220;2023-02-26T06:49:33;8.73;;;4.60;;
73599;SDS011;61877;48.246;9.220;2023-02-26T06:54:51;9.57;;;5.03;;
73599;SDS011;61877;48.246;9.220;2023-02-26T06:57:20;9.13;;;4.50;;
73599;SDS011;61877;48.246;9.220;2023-02-26T06:59:45;8.75;;;4.38;;
73599;SDS011;61877;48.246;9.220;2023-02-26T07:02:14;8.57;;;4.20;;
73599;SDS011;61877;48.246;9.220;2023-02-26T07:04:40;8.23;;;4.53;;
73599;SDS011;61877;48.246;9.220;2023-02-26T07:07:06;7.40;;;4.23;;
73599;SDS011;61877;48.246;9.220;2023-02-26T07:09:31;8.33;;;4.20;;
73599;SDS011;61877;48.246;9.220;2023-02-26T07:11:58;8.70;;;4.40;;
73599;SDS011;61877;48.246;9.220;2023-02-26T07:14:24;8.15;;;4.30;;
73599;SDS011;61877;48.246;9.220;2023-02-26T07:16:49;9.50;;;4.30;;
73599;SDS011;61877;48.246;9.220;2023-02-26T07:19:15;8.27;;;3.97;;
73599;SDS011;61877;48.246;9.220;2023-02-26T07:21:42;7.57;;;4.40;;
73599;SDS011;61877;48.246;9.220;2023-02-26T07:24:08;8.37;;;4.30;;
73599;SDS011;61877;48.246;9.220;2023-02-26T07:26:34;7.88;;;4.28;;
73599;SDS011;61877;48.246;9.220;2023-02-26T07:29:01;7.63;;;3.90;;
73599;SDS011;61877;48.246;9.220;2023-02-26T07:31:26;8.18;;;4.30;;
73599;SDS011;61877;48.246;9.220;2023-02-26T07:33:51;8.00;;;4.40;;
73599;SDS011;61877;48.246;9.220;2023-02-26T07:36:17;8.67;;;4.23;;
73599;SDS011;61877;48.246;9.220;2023-02-26T07:38:42;8.20;;;4.40;;
73599;SDS011;61877;48.246;9.220;2023-02-26T07:41:07;9.30;;;4.30;;
73599;SDS011;61877;48.246;9.220;2023-02-26T07:43:33;9.43;;;4.07;;
73599;SDS011;61877;48.246;9.220;2023-02-26T07:46:00;8.50;;;4.50;;
73599;SDS011;61877;48.246;9.220;2023-02-26T07:48:25;7.38;;;4.38;;
73599;SDS011;61877;48.246;9.220;2023-02-26T07:50:51;9.23;;;4.80;;
73599;SDS011;61877;48.246;9.220;2023-02-26T07:53:17;8.88;;;4.47;;
73599;SDS011;61877;48.246;9.220;2023-02-26T07:55:42;9.40;;;4.47;;
73599;SDS011;61877;48.246;9.220;2023-02-26T07:58:08;8.02;;;3.90;;
73599;SDS011;61877;48.246;9.220;2023-02-26T08:00:33;8.37;;;4.17;;
73599;SDS011;61877;48.246;9.220;2023-02-26T08:03:03;9.13;;;4.10;;
73599;SDS011;61877;48.246;9.220;2023-02-26T08:05:28;8.07;;;4.60;;
73599;SDS011;61877;48.246;9.220;2023-02-26T08:07:54;7.53;;;4.00;;
73599;SDS011;61877;48.246;9.220;2023-02-26T08:10:19;8.93;;;4.20;;
73599;SDS011;61877;48.246;9.220;2023-02-26T08:12:45;7.20;;;4.43;;
73599;SDS011;61877;48.246;9.220;2023-02-26T08:15:11;7.90;;;4.00;;
73599;SDS011;61877;48.246;9.220;2023-02-26T08:17:44;8.07;;;4.32;;
73599;SDS011;61877;48.246;9.220;2023-02-26T08:20:13;9.02;;;4.40;;
73599;SDS011;61877;48.246;9.220;2023-02-26T08:22:39;7.13;;;3.78;;
73599;SDS011;61877;48.246;9.220;2023-02-26T08:25:05;8.97;;;4.30;;
73599;SDS011;61877;48.246;9.220;2023-02-26T08:27:31;9.10;;;4.10;;
73599;SDS011;61877;48.246;9.220;2023-02-26T08:29:57;8.02;;;4.22;;
73599;SDS011;61877;48.246;9.220;2023-02-26T08:32:24;6.97;;;3.78;;
73599;SDS011;61877;48.246;9.220;2023-02-26T08:34:52;8.47;;;3.90;;
73599;SDS011;61877;48.246;9.220;2023-02-26T08:37:22;7.38;;;3.83;;
73599;SDS011;61877;48.246;9.220;2023-02-26T08:39:51;7.93;;;3.80;;
73599;SDS011;61877;48.246;9.220;2023-02-26T08:42:17;7.75;;;3.97;;
73599;SDS011;61877;48.246;9.220;2023-02-26T08:44:42;7.15;;;3.80;;
73599;SDS011;61877;48.246;9.220;2023-02-26T08:47:08;7.73;;;4.00;;
73599;SDS011;61877;48.246;9.220;2023-02-26T08:49:33;6.53;;;3.10;;
73599;SDS011;61877;48.246;9.220;2023-02-26T08:51:59;7.82;;;3.92;;
73599;SDS011;61877;48.246;9.220;2023-02-26T08:54:26;7.57;;;3.50;;
73599;SDS011;61877;48.246;9.220;2023-02-26T08:56:51;6.50;;;3.33;;
73599;SDS011;61877;48.246;9.220;2023-02-26T08:59:17;6.97;;;3.73;;
73599;SDS011;61877;48.246;9.220;2023-02-26T09:01:42;8.02;;;3.60;;
73599;SDS011;61877;48.246;9.220;2023-02-26T09:04:08;8.10;;;3.70;;
73599;SDS011;61877;48.246;9.220;2023-02-26T09:06:34;8.15;;;3.35;;
73599;SDS011;61877;48.246;9.220;2023-02-26T09:08:59;9.30;;;4.37;;
73599;SDS011;61877;48.246;9.220;2023-02-26T09:11:26;7.73;;;4.03;;
73599;SDS011;61877;48.246;9.220;2023-02-26T09:13:52;7.07;;;3.78;;
73599;SDS011;61877;48.246;9.220;2023-02-26T09:16:17;10.60;;;4.87;;
73599;SDS011;61877;48.246;9.220;2023-02-26T09:18:43;8.17;;;4.27;;
73599;SDS011;61877;48.246;9.220;2023-02-26T09:21:08;7.25;;;3.90;;
73599;SDS011;61877;48.246;9.220;2023-02-26T09:23:36;7.20;;;3.40;;
73599;SDS011;61877;48.246;9.220;2023-02-26T09:26:02;7.50;;;3.72;;
73599;SDS011;61877;48.246;9.220;2023-02-26T09:28:29;7.60;;;3.70;;
73599;SDS011;61877;48.246;9.220;2023-02-26T09:30:54;7.80;;;4.05;;
73599;SDS011;61877;48.246;9.220;2023-02-26T09:33:20;8.07;;;3.80;;
73599;SDS011;61877;48.246;9.220;2023-02-26T09:35:47;7.57;;;3.80;;
73599;SDS011;61877;48.246;9.220;2023-02-26T09:38:12;8.43;;;4.10;;
73599;SDS011;61877;48.246;9.220;2023-02-26T09:40:42;7.53;;;4.10;;
73599;SDS011;61877;48.246;9.220;2023-02-26T09:43:18;7.60;;;3.80;;
73599;SDS011;61877;48.246;9.220;2023-02-26T09:45:56;7.93;;;3.50;;
73599;SDS011;61877;48.246;9.220;2023-02-26T09:48:27;9.57;;;4.43;;
73599;SDS011;61877;48.246;9.220;2023-02-26T09:50:55;8.38;;;4.32;;
73599;SDS011;61877;48.246;9.220;2023-02-26T09:53:23;10.60;;;5.13;;
73599;SDS011;61877;48.246;9.220;2023-02-26T09:55:50;7.63;;;3.92;;
73599;SDS011;61877;48.246;9.220;2023-02-26T09:58:20;6.80;;;3.53;;
73599;SDS011;61877;48.246;9.220;2023-02-26T10:00:50;7.63;;;4.03;;
73599;SDS011;61877;48.246;9.220;2023-02-26T10:03:24;7.60;;;4.18;;
73599;SDS011;61877;48.246;9.220;2023-02-26T10:06:01;6.85;;;3.85;;
73599;SDS011;61877;48.246;9.220;2023-02-26T10:08:43;7.40;;;3.67;;
73599;SDS011;61877;48.246;9.220;2023-02-26T10:11:16;6.97;;;3.67;;
73599;SDS011;61877;48.246;9.220;2023-02-26T10:13:50;6.72;;;3.42;;
73599;SDS011;61877;48.246;9.220;2023-02-26T10:16:19;7.00;;;3.35;;
73599;SDS011;61877;48.246;9.220;2023-02-26T10:18:50;7.25;;;3.20;;
73599;SDS011;61877;48.246;9.220;2023-02-26T10:21:20;7.60;;;3.75;;
73599;SDS011;61877;48.246;9.220;2023-02-26T10:23:50;7.47;;;3.30;;
73599;SDS011;61877;48.246;9.220;2023-02-26T10:26:22;7.18;;;3.15;;
73599;SDS011;61877;48.246;9.220;2023-02-26T10:28:55;7.25;;;3.63;;
73599;SDS011;61877;48.246;9.220;2023-02-26T10:31:25;6.80;;;3.05;;
73599;SDS011;61877;48.246;9.220;2023-02-26T10:34:00;7.60;;;3.10;;
73599;SDS011;61877;48.246;9.220;2023-02-26T10:36:38;7.23;;;3.10;;
73599;SDS011;61877;48.246;9.220;2023-02-26T10:39:15;7.40;;;2.90;;
73599;SDS011;61877;48.246;9.220;2023-02-26T10:41:50;6.55;;;3.30;;
73599;SDS011;61877;48.246;9.220;2023-02-26T10:44:17;6.65;;;3.20;;
73599;SDS011;61877;48.246;9.220;2023-02-26T10:46:49;7.47;;;3.60;;
73599;SDS011;61877;48.246;9.220;2023-02-26T10:49:48;6.60;;;2.93;;
73599;SDS011;61877;48.246;9.220;2023-02-26T10:52:18;8.25;;;3.40;;
73599;SDS011;61877;48.246;9.220;2023-02-26T10:54:53;8.40;;;3.47;;
73599;SDS011;61877;48.246;9.220;2023-02-26T10:57:33;7.93;;;3.88;;
73599;SDS011;61877;48.246;9.220;2023-02-26T11:00:01;8.10;;;3.50;;
73599;SDS011;61877;48.246;9.220;2023-02-26T11:02:32;7.43;;;3.50;;
73599;SDS011;61877;48.246;9.220;2023-02-26T11:05:02;8.45;;;4.00;;
73599;SDS011;61877;48.246;9.220;2023-02-26T11:07:30;7.38;;;4.00;;
73599;SDS011;61877;48.246;9.220;2023-02-26T11:09:56;8.23;;;3.72;;
73599;SDS011;61877;48.246;9.220;2023-02-26T11:12:23;9.73;;;4.50;;
73599;SDS011;61877;48.246;9.220;2023-02-26T11:14:52;7.37;;;4.03;;
73599;SDS011;61877;48.246;9.220;2023-02-26T11:17:18;7.03;;;3.65;;
73599;SDS011;61877;48.246;9.220;2023-02-26T11:19:56;7.57;;;3.90;;
73599;SDS011;61877;48.246;9.220;2023-02-26T11:22:26;7.45;;;3.80;;
73599;SDS011;61877;48.246;9.220;2023-02-26T11:24:56;8.63;;;4.88;;
73599;SDS011;61877;48.246;9.220;2023-02-26T11:27:23;7.40;;;3.85;;
73599;SDS011;61877;48.246;9.220;2023-02-26T11:29:55;7.15;;;3.97;;
73599;SDS011;61877;48.246;9.220;2023-02-26T11:32:31;9.67;;;4.20;;
73599;SDS011;61877;48.246;9.220;2023-02-26T11:34:57;8.30;;;3.78;;
73599;SDS011;61877;48.246;9.220;2023-02-26T11:37:23;7.20;;;4.07;;
73599;SDS011;61877;48.246;9.220;2023-02-26T11:42:47;8.23;;;4.50;;
73599;SDS011;61877;48.246;9.220;2023-02-26T11:45:17;8.63;;;4.10;;
73599;SDS011;61877;48.246;9.220;2023-02-26T11:47:45;7.78;;;4.40;;
73599;SDS011;61877;48.246;9.220;2023-02-26T11:50:13;7.13;;;3.72;;
73599;SDS011;61877;48.246;9.220;2023-02-26T11:52:47;7.23;;;3.70;;
73599;SDS011;61877;48.246;9.220;2023-02-26T11:55:20;7.93;;;4.03;;
73599;SDS011;61877;48.246;9.220;2023-02-26T11:57:50;7.15;;;3.85;;
73599;SDS011;61877;48.246;9.220;2023-02-26T12:00:18;7.55;;;4.20;;
73599;SDS011;61877;48.246;9.220;2023-02-26T12:02:47;6.93;;;3.90;;
73599;SDS011;61877;48.246;9.220;2023-02-26T12:05:14;7.47;;;3.50;;
73599;SDS011;61877;48.246;9.220;2023-02-26T12:07:45;6.70;;;3.90;;
73599;SDS011;61877;48.246;9.220;2023-02-26T12:10:12;6.90;;;3.90;;
73599;SDS011;61877;48.246;9.220;2023-02-26T12:12:50;7.00;;;4.07;;
73599;SDS011;61877;48.246;9.220;2023-02-26T12:15:26;7.20;;;3.92;;
73599;SDS011;61877;48.246;9.220;2023-02-26T12:18:07;6.88;;;4.00;;
73599;SDS011;61877;48.246;9.220;2023-02-26T12:20:42;7.78;;;4.20;;
73599;SDS011;61877;48.246;9.220;2023-02-26T12:23:19;7.50;;;4.03;;
73599;SDS011;61877;48.246;9.220;2023-02-26T12:26:04;6.65;;;3.58;;
73599;SDS011;61877;48.246;9.220;2023-02-26T12:28:42;7.70;;;3.78;;
73599;SDS011;61877;48.246;9.220;2023-02-26T12:31:32;6.80;;;3.38;;
73599;SDS011;61877;48.246;9.220;2023-02-26T12:34:13;6.40;;;3.20;;
73599;SDS011;61877;48.246;9.220;2023-02-26T12:36:52;6.90;;;3.40;;
73599;SDS011;61877;48.246;9.220;2023-02-26T12:39:36;6.60;;;3.40;;
73599;SDS011;61877;48.246;9.220;2023-02-26T12:42:15;6.47;;;3.13;;
73599;SDS011;61877;48.246;9.220;2023-02-26T12:44:55;6.80;;;3.20;;
73599;SDS011;61877;48.246;9.220;2023-02-26T12:47:35;8.75;;;4.63;;
73599;SDS011;61877;48.246;9.220;2023-02-26T12:50:21;6.90;;;3.70;;
73599;SDS011;61877;48.246;9.220;2023-02-26T12:52:57;7.38;;;3.40;;
73599;SDS011;61877;48.246;9.220;2023-02-26T12:55:38;7.10;;;3.70;;
73599;SDS011;61877;48.246;9.220;2023-02-26T12:58:17;7.00;;;3.53;;
73599;SDS011;61877;48.246;9.220;2023-02-26T13:00:57;7.70;;;4.00;;
73599;SDS011;61877;48.246;9.220;2023-02-26T13:03:50;7.50;;;4.23;;
73599;SDS011;61877;48.246;9.220;2023-02-26T13:09:31;9.63;;;4.88;;
73599;SDS011;61877;48.246;9.220;2023-02-26T13:12:06;8.55;;;4.03;;
73599;SDS011;61877;48.246;9.220;2023-02-26T13:14:48;8.25;;;3.50;;
73599;SDS011;61877;48.246;9.220;2023-02-26T13:17:21;7.70;;;3.37;;
73599;SDS011;61877;48.246;9.220;2023-02-26T13:19:52;6.22;;;3.00;;
73599;SDS011;61877;48.246;9.220;2023-02-26T13:22:21;7.95;;;3.42;;
73599;SDS011;61877;48.246;9.220;2023-02-26T13:24:51;7.10;;;3.40;;
73599;SDS011;61877;48.246;9.220;2023-02-26T13:27:23;8.13;;;3.85;;
73599;SDS011;61877;48.246;9.220;2023-02-26T13:29:55;7.27;;;3.40;;
73599;SDS011;61877;48.246;9.220;2023-02-26T13:32:29;7.20;;;3.55;;
73599;SDS011;61877;48.246;9.220;2023-02-26T13:34:58;7.20;;;3.80;;
73599;SDS011;61877;48.246;9.220;2023-02-26T13:37:29;6.75;;;3.70;;
73599;SDS011;61877;48.246;9.220;2023-02-26T13:40:03;7.35;;;3.78;;
73599;SDS011;61877;48.246;9.220;2023-02-26T13:42:49;6.97;;;3.70;;
73599;SDS011;61877;48.246;9.220;2023-02-26T13:45:24;7.18;;;3.83;;
73599;SDS011;61877;48.246;9.220;2023-02-26T13:48:06;7.25;;;3.60;;
73599;SDS011;61877;48.246;9.220;2023-02-26T13:50:43;7.28;;;3.42;;
73599;SDS011;61877;48.246;9.220;2023-02-26T13:56:22;7.13;;;3.60;;
73599;SDS011;61877;48.246;9.220;2023-02-26T13:59:34;6.85;;;3.63;;
73599;SDS011;61877;48.246;9.220;2023-02-26T14:05:23;6.57;;;3.20;;
73599;SDS011;61877;48.246;9.220;2023-02-26T14:08:18;6.60;;;2.97;;
73599;SDS011;61877;48.246;9.220;2023-02-26T14:10:52;6.93;;;3.30;;
73599;SDS011;61877;48.246;9.220;2023-02-26T14:13:29;6.97;;;3.30;;
73599;SDS011;61877;48.246;9.220;2023-02-26T14:16:00;6.50;;;3.05;;
73599;SDS011;61877;48.246;9.220;2023-02-26T14:18:39;7.57;;;3.80;;
73599;SDS011;61877;48.246;9.220;2023-02-26T14:24:01;6.63;;;3.47;;
73599;SDS011;61877;48.246;9.220;2023-02-26T14:26:31;7.00;;;3.50;;
73599;SDS011;61877;48.246;9.220;2023-02-26T14:29:06;7.90;;;3.90;;
73599;SDS011;61877;48.246;9.220;2023-02-26T14:31:52;7.30;;;3.42;;
73599;SDS011;61877;48.246;9.220;2023-02-26T14:34:24;7.93;;;3.50;;
73599;SDS011;61877;48.246;9.220;2023-02-26T14:36:54;6.10;;;2.83;;
73599;SDS011;61877;48.246;9.220;2023-02-26T14:39:23;6.40;;;2.85;;
73599;SDS011;61877;48.246;9.220;2023-02-26T14:41:55;6.55;;;3.20;;
73599;SDS011;61877;48.246;9.220;2023-02-26T14:44:26;6.95;;;3.20;;
73599;SDS011;61877;48.246;9.220;2023-02-26T14:46:55;7.82;;;3.53;;
73599;SDS011;61877;48.246;9.220;2023-02-26T14:49:24;7.10;;;3.90;;
73599;SDS011;61877;48.246;9.220;2023-02-26T14:51:59;7.25;;;3.90;;
73599;SDS011;61877;48.246;9.220;2023-02-26T14:54:39;6.93;;;3.60;;
73599;SDS011;61877;48.246;9.220;2023-02-26T14:57:16;6.72;;;3.45;;
73599;SDS011;61877;48.246;9.220;2023-02-26T15:02:47;7.00;;;3.60;;
73599;SDS011;61877;48.246;9.220;2023-02-26T15:05:43;7.53;;;4.13;;
73599;SDS011;61877;48.246;9.220;2023-02-26T15:08:26;7.00;;;3.50;;
73599;SDS011;61877;48.246;9.220;2023-02-26T15:14:32;6.60;;;3.15;;
73599;SDS011;61877;48.246;9.220;2023-02-26T15:17:34;6.60;;;3.33;;
73599;SDS011;61877;48.246;9.220;2023-02-26T15:20:17;7.60;;;4.07;;
73599;SDS011;61877;48.246;9.220;2023-02-26T15:22:53;7.05;;;3.67;;
73599;SDS011;61877;48.246;9.220;2023-02-26T15:25:31;7.10;;;3.90;;
73599;SDS011;61877;48.246;9.220;2023-02-26T15:28:00;7.43;;;4.10;;
73599;SDS011;61877;48.246;9.220;2023-02-26T15:30:28;8.30;;;4.27;;
73599;SDS011;61877;48.246;9.220;2023-02-26T15:32:56;7.32;;;4.15;;
73599;SDS011;61877;48.246;9.220;2023-02-26T15:35:26;6.53;;;3.38;;
73599;SDS011;61877;48.246;9.220;2023-02-26T15:37:59;9.68;;;4.60;;
73599;SDS011;61877;48.246;9.220;2023-02-26T15:40:31;8.63;;;4.68;;
73599;SDS011;61877;48.246;9.220;2023-02-26T15:42:59;7.93;;;4.50;;
73599;SDS011;61877;48.246;9.220;2023-02-26T15:45:30;8.50;;;4.45;;
73599;SDS011;61877;48.246;9.220;2023-02-26T15:47:58;7.25;;;4.00;;
73599;SDS011;61877;48.246;9.220;2023-02-26T15:50:27;8.02;;;3.50;;
73599;SDS011;61877;48.246;9.220;2023-02-26T15:52:57;7.55;;;3.83;;
73599;SDS011;61877;48.246;9.220;2023-02-26T15:55:32;5.90;;;2.90;;
73599;SDS011;61877;48.246;9.220;2023-02-26T15:58:00;6.53;;;3.75;;
73599;SDS011;61877;48.246;9.220;2023-02-26T16:00:27;6.40;;;3.35;;